Time;durP1;ratioP1;P1;durP2;ratioP2;P2;SDS_P1;SDS_P2;PMS_P1;PMS_P2;Temp;Humidity;BMP_temperature;BMP_pressure;BME280_temperature;BME280_humidity;BME280_pressure;Samples;Min_cycle;Max_cycle;Signal;HPM_P1;HPM_P2
2023/05/03 00:00:46;;;;;;;4.83;4.53;;;;;;;;;;4945290;29;21069;-74
2023/05/03 00:03:13;;;;;;;4.13;3.93;;;;;;;;;;4939506;29;20418;-74
2023/05/03 00:05:39;;;;;;;4.80;4.50;;;;;;;;;;4944619;29;20504;-74
2023/05/03 00:08:05;;;;;;;4.80;4.60;;;;;;;;;;4939750;29;20419;-74
2023/05/03 00:10:31;;;;;;;4.73;4.37;;;;;;;;;;4945031;29;20424;-74
2023/05/03 00:12:57;;;;;;;6.60;4.27;;;;;;;;;;4946248;29;20411;-73
2023/05/03 00:15:23;;;;;;;8.37;4.30;;;;;;;;;;4946866;29;20448;-73
2023/05/03 00:17:50;;;;;;;5.83;4.13;;;;;;;;;;4947633;29;20477;-74
2023/05/03 00:20:18;;;;;;;4.77;4.50;;;;;;;;;;4944530;29;21019;-73
2023/05/03 00:22:44;;;;;;;5.10;4.80;;;;;;;;;;4941507;29;20458;-74
2023/05/03 00:25:10;;;;;;;5.40;5.00;;;;;;;;;;4945536;29;20445;-73
2023/05/03 00:27:36;;;;;;;5.00;4.70;;;;;;;;;;4948398;29;20605;-74
2023/05/03 00:30:02;;;;;;;4.67;4.33;;;;;;;;;;4946705;28;20420;-74
2023/05/03 00:32:28;;;;;;;5.30;4.90;;;;;;;;;;4941507;29;20879;-74
2023/05/03 00:34:57;;;;;;;6.87;6.23;;;;;;;;;;4940148;28;20459;-74
2023/05/03 00:37:24;;;;;;;5.90;5.47;;;;;;;;;;4947177;29;20430;-74
2023/05/03 00:39:50;;;;;;;6.73;5.50;;;;;;;;;;4929805;29;21379;-74
2023/05/03 00:42:16;;;;;;;6.10;5.70;;;;;;;;;;4947511;29;20904;-75
2023/05/03 00:44:42;;;;;;;9.03;8.40;;;;;;;;;;4945702;29;20438;-74
2023/05/03 00:47:08;;;;;;;6.80;6.20;;;;;;;;;;4941443;29;20457;-75
2023/05/03 00:49:34;;;;;;;6.00;5.60;;;;;;;;;;4947412;29;20438;-74
2023/05/03 00:52:00;;;;;;;5.27;4.97;;;;;;;;;;4946257;29;20489;-73
2023/05/03 00:54:27;;;;;;;6.20;5.67;;;;;;;;;;4946706;29;21226;-74
2023/05/03 00:56:53;;;;;;;6.40;5.90;;;;;;;;;;4936942;29;20463;-74
2023/05/03 00:59:19;;;;;;;6.00;5.50;;;;;;;;;;4947560;29;20516;-74
2023/05/03 01:01:50;;;;;;;8.50;6.87;;;;;;;;;;4945934;29;20529;-74
2023/05/03 01:04:16;;;;;;;6.20;5.77;;;;;;;;;;4945754;29;20425;-74
2023/05/03 01:06:51;;;;;;;9.70;6.43;;;;;;;;;;4943928;29;20434;-74
2023/05/03 01:09:36;;;;;;;7.60;6.90;;;;;;;;;;4948468;29;20929;-74
2023/05/03 01:12:11;;;;;;;7.53;6.93;;;;;;;;;;4934162;29;20492;-74
2023/05/03 01:14:56;;;;;;;12.80;10.43;;;;;;;;;;4946226;29;20442;-74
2023/05/03 01:17:25;;;;;;;6.83;6.23;;;;;;;;;;4936832;29;20808;-75
2023/05/03 01:19:55;;;;;;;6.13;5.70;;;;;;;;;;4947205;29;20809;-74
2023/05/03 01:22:35;;;;;;;6.23;5.63;;;;;;;;;;4935056;29;20438;-74
2023/05/03 01:25:06;;;;;;;6.50;6.10;;;;;;;;;;4946961;29;20468;-74
2023/05/03 01:27:32;;;;;;;7.70;6.90;;;;;;;;;;4935184;29;20435;-75
2023/05/03 01:29:58;;;;;;;7.10;6.37;;;;;;;;;;4944556;28;20450;-75
2023/05/03 01:32:30;;;;;;;6.90;6.20;;;;;;;;;;4936374;29;20829;-75
2023/05/03 01:35:09;;;;;;;8.53;6.60;;;;;;;;;;4945973;29;20404;-73
2023/05/03 01:37:35;;;;;;;6.10;5.60;;;;;;;;;;4938961;29;20425;-73
2023/05/03 01:40:06;;;;;;;7.70;7.30;;;;;;;;;;4944783;29;20543;-75
2023/05/03 01:42:33;;;;;;;18.23;7.53;;;;;;;;;;4935327;29;20441;-75
2023/05/03 01:45:02;;;;;;;7.93;7.20;;;;;;;;;;4944439;29;20441;-75
2023/05/03 01:47:28;;;;;;;6.93;6.43;;;;;;;;;;4938740;29;20449;-73
2023/05/03 01:49:54;;;;;;;9.60;6.00;;;;;;;;;;4947900;29;20831;-73
2023/05/03 01:52:20;;;;;;;7.33;6.73;;;;;;;;;;4949236;29;20416;-74
2023/05/03 01:54:46;;;;;;;6.70;5.87;;;;;;;;;;4948936;29;20450;-73
2023/05/03 01:57:12;;;;;;;7.23;6.57;;;;;;;;;;4949678;29;20451;-74
2023/05/03 01:59:38;;;;;;;7.90;7.20;;;;;;;;;;4932886;29;20438;-74
2023/05/03 02:02:04;;;;;;;7.67;6.93;;;;;;;;;;4949921;29;20525;-73
2023/05/03 02:04:30;;;;;;;10.63;9.73;;;;;;;;;;4944483;29;20485;-74
2023/05/03 02:06:56;;;;;;;10.97;7.70;;;;;;;;;;4937410;29;20417;-74
2023/05/03 02:09:22;;;;;;;7.43;6.70;;;;;;;;;;4951261;29;20861;-73
2023/05/03 02:11:48;;;;;;;11.00;6.90;;;;;;;;;;4949495;29;20988;-74
2023/05/03 02:14:14;;;;;;;14.43;7.70;;;;;;;;;;4950732;29;20434;-74
2023/05/03 02:16:40;;;;;;;7.30;6.60;;;;;;;;;;4949015;29;20460;-74
2023/05/03 02:19:07;;;;;;;7.43;6.93;;;;;;;;;;4950525;29;20446;-75
2023/05/03 02:21:34;;;;;;;7.90;6.43;;;;;;;;;;4947369;29;20416;-74
2023/05/03 02:24:00;;;;;;;7.13;6.63;;;;;;;;;;4943309;29;20433;-74
2023/05/03 02:26:26;;;;;;;12.00;7.50;;;;;;;;;;4945365;29;20413;-74
2023/05/03 02:28:54;;;;;;;8.30;7.20;;;;;;;;;;4950148;28;20515;-74
2023/05/03 02:31:20;;;;;;;8.93;8.13;;;;;;;;;;4948672;29;20468;-74
2023/05/03 02:33:47;;;;;;;10.03;7.90;;;;;;;;;;4951247;29;20865;-74
2023/05/03 02:36:13;;;;;;;9.17;8.23;;;;;;;;;;4947514;29;20443;-74
2023/05/03 02:38:38;;;;;;;15.17;7.50;;;;;;;;;;4949933;29;20422;-73
2023/05/03 02:41:05;;;;;;;8.10;7.03;;;;;;;;;;4942621;29;20437;-74
2023/05/03 02:43:31;;;;;;;7.80;6.70;;;;;;;;;;4950593;29;20462;-74
2023/05/03 02:45:57;;;;;;;7.20;6.60;;;;;;;;;;4946398;29;20409;-74
2023/05/03 02:48:23;;;;;;;9.07;8.17;;;;;;;;;;4950335;29;20422;-75
2023/05/03 02:50:49;;;;;;;10.38;9.20;;;;;;;;;;4945507;29;20750;-75
2023/05/03 02:53:15;;;;;;;11.70;9.07;;;;;;;;;;4947156;29;20195;-75
2023/05/03 02:55:41;;;;;;;8.60;7.80;;;;;;;;;;4947076;29;21188;-75
2023/05/03 02:58:08;;;;;;;9.57;8.70;;;;;;;;;;4940725;28;20386;-75
2023/05/03 03:00:35;;;;;;;10.20;8.93;;;;;;;;;;4947176;29;20985;-75
2023/05/03 03:03:01;;;;;;;8.47;7.67;;;;;;;;;;4949604;29;20405;-74
2023/05/03 03:05:27;;;;;;;15.13;13.70;;;;;;;;;;4946654;29;20525;-75
2023/05/03 03:07:53;;;;;;;9.37;8.03;;;;;;;;;;4946290;29;20870;-75
2023/05/03 03:10:19;;;;;;;9.67;8.50;;;;;;;;;;4946445;29;20445;-75
2023/05/03 03:12:46;;;;;;;10.67;9.67;;;;;;;;;;4943144;29;20927;-74
2023/05/03 03:15:12;;;;;;;13.27;11.67;;;;;;;;;;4941603;29;20579;-74
2023/05/03 03:17:38;;;;;;;11.07;9.77;;;;;;;;;;4949387;29;20412;-74
2023/05/03 03:20:10;;;;;;;11.10;10.03;;;;;;;;;;4948251;29;20912;-76
2023/05/03 03:22:37;;;;;;;10.40;9.33;;;;;;;;;;4937217;29;20961;-74
2023/05/03 03:25:06;;;;;;;13.07;11.77;;;;;;;;;;4946831;29;20416;-74
2023/05/03 03:27:32;;;;;;;10.33;9.33;;;;;;;;;;4939551;29;20912;-74
2023/05/03 03:30:01;;;;;;;12.30;9.77;;;;;;;;;;4946822;28;20430;-74
2023/05/03 03:32:27;;;;;;;11.40;9.60;;;;;;;;;;4948612;29;20393;-74
2023/05/03 03:34:53;;;;;;;9.23;8.47;;;;;;;;;;4947989;29;20829;-74
2023/05/03 03:37:22;;;;;;;15.90;10.70;;;;;;;;;;4948593;29;20893;-74
2023/05/03 03:39:48;;;;;;;8.63;7.83;;;;;;;;;;4947630;28;20889;-74
2023/05/03 03:42:14;;;;;;;10.50;8.73;;;;;;;;;;4948983;29;20413;-75
2023/05/03 03:44:40;;;;;;;9.10;8.30;;;;;;;;;;4947782;29;20434;-74
2023/05/03 03:47:06;;;;;;;8.03;7.33;;;;;;;;;;4948707;29;20941;-75
2023/05/03 03:49:32;;;;;;;10.10;8.40;;;;;;;;;;4948435;29;21214;-74
2023/05/03 03:51:58;;;;;;;11.83;8.33;;;;;;;;;;4948204;29;20430;-74
2023/05/03 03:54:24;;;;;;;9.53;8.60;;;;;;;;;;4947861;29;20452;-75
2023/05/03 03:56:51;;;;;;;9.50;8.70;;;;;;;;;;4948136;29;21148;-74
2023/05/03 03:59:17;;;;;;;13.10;8.83;;;;;;;;;;4949089;29;20534;-74
2023/05/03 04:01:43;;;;;;;9.93;8.40;;;;;;;;;;4937637;29;20436;-74
2023/05/03 04:04:09;;;;;;;17.37;11.00;;;;;;;;;;4945702;29;20439;-74
2023/05/03 04:06:35;;;;;;;16.10;11.53;;;;;;;;;;4938032;29;20406;-73
2023/05/03 04:09:01;;;;;;;14.43;12.80;;;;;;;;;;4947320;28;20404;-74
2023/05/03 04:11:27;;;;;;;14.20;11.10;;;;;;;;;;4943875;29;20409;-74
2023/05/03 04:13:53;;;;;;;11.57;10.63;;;;;;;;;;4948845;29;20884;-75
2023/05/03 04:16:19;;;;;;;14.67;10.00;;;;;;;;;;4945684;29;20489;-75
2023/05/03 04:18:46;;;;;;;10.50;9.60;;;;;;;;;;4947389;29;20557;-73
2023/05/03 04:21:12;;;;;;;29.97;14.63;;;;;;;;;;4942189;28;20420;-74
2023/05/03 04:23:38;;;;;;;11.23;10.03;;;;;;;;;;4951877;28;20903;-73
2023/05/03 04:26:04;;;;;;;17.77;13.02;;;;;;;;;;4945484;28;20418;-74
2023/05/03 04:28:30;;;;;;;10.80;9.77;;;;;;;;;;4945633;28;20497;-74
2023/05/03 04:30:57;;;;;;;11.60;10.43;;;;;;;;;;4948596;29;20415;-74
2023/05/03 04:33:23;;;;;;;14.57;13.17;;;;;;;;;;4944652;29;20494;-75
2023/05/03 04:35:52;;;;;;;10.40;9.37;;;;;;;;;;4947640;29;20432;-75
2023/05/03 04:38:18;;;;;;;14.30;11.50;;;;;;;;;;4945785;29;20613;-75
2023/05/03 04:40:45;;;;;;;12.00;11.00;;;;;;;;;;4948025;29;20465;-74
2023/05/03 04:43:11;;;;;;;15.87;14.27;;;;;;;;;;4945491;29;21041;-74
2023/05/03 04:45:38;;;;;;;14.10;12.80;;;;;;;;;;4947891;29;20402;-74
2023/05/03 04:48:04;;;;;;;16.80;15.10;;;;;;;;;;4936897;29;20537;-74
2023/05/03 04:50:30;;;;;;;13.25;11.80;;;;;;;;;;4946833;29;20463;-74
2023/05/03 04:52:57;;;;;;;14.13;10.80;;;;;;;;;;4938832;29;20228;-74
2023/05/03 04:55:23;;;;;;;13.13;11.67;;;;;;;;;;4948246;29;20440;-75
2023/05/03 04:57:49;;;;;;;14.50;13.03;;;;;;;;;;4945824;29;20530;-73
2023/05/03 05:00:15;;;;;;;13.73;12.40;;;;;;;;;;4939290;29;20437;-75
2023/05/03 05:02:42;;;;;;;9.53;8.30;;;;;;;;;;4944169;29;20457;-74
2023/05/03 05:05:08;;;;;;;13.10;11.80;;;;;;;;;;4946182;29;20512;-74
2023/05/03 05:07:35;;;;;;;13.83;11.13;;;;;;;;;;4943014;29;20446;-75
2023/05/03 05:10:01;;;;;;;10.90;9.87;;;;;;;;;;4938352;28;20468;-74
2023/05/03 05:12:27;;;;;;;9.83;9.00;;;;;;;;;;4940562;29;20397;-75
2023/05/03 05:14:53;;;;;;;14.70;9.33;;;;;;;;;;4934974;29;20416;-75
2023/05/03 05:17:20;;;;;;;10.07;9.07;;;;;;;;;;4940165;29;20519;-74
2023/05/03 05:19:46;;;;;;;13.23;9.40;;;;;;;;;;4940632;28;20514;-75
2023/05/03 05:22:12;;;;;;;12.07;10.93;;;;;;;;;;4941115;29;20446;-74
2023/05/03 05:24:38;;;;;;;9.40;8.50;;;;;;;;;;4939729;29;20446;-74
2023/05/03 05:27:05;;;;;;;9.10;7.63;;;;;;;;;;4945380;29;20520;-74
2023/05/03 05:29:31;;;;;;;9.00;8.30;;;;;;;;;;4940111;29;20509;-74
2023/05/03 05:31:58;;;;;;;7.03;6.43;;;;;;;;;;4941724;29;20993;-75
2023/05/03 05:34:24;;;;;;;7.70;7.00;;;;;;;;;;4942888;29;20443;-75
2023/05/03 05:36:51;;;;;;;9.40;7.70;;;;;;;;;;4948675;29;20550;-76
2023/05/03 05:39:17;;;;;;;9.03;8.17;;;;;;;;;;4943797;29;20422;-74
2023/05/03 05:41:43;;;;;;;7.73;7.10;;;;;;;;;;4943416;29;20474;-75
2023/05/03 05:44:09;;;;;;;8.23;7.30;;;;;;;;;;4940905;29;20538;-76
2023/05/03 05:46:35;;;;;;;9.67;8.77;;;;;;;;;;4944943;29;20433;-75
2023/05/03 05:49:02;;;;;;;11.27;10.27;;;;;;;;;;4940724;29;20458;-74
2023/05/03 05:51:30;;;;;;;9.37;8.10;;;;;;;;;;4942563;29;20926;-76
2023/05/03 05:53:57;;;;;;;8.77;7.80;;;;;;;;;;4943232;29;20437;-77
2023/05/03 05:56:26;;;;;;;9.73;8.40;;;;;;;;;;4941388;29;20513;-75
2023/05/03 05:58:52;;;;;;;7.50;6.80;;;;;;;;;;4939651;29;20521;-74
2023/05/03 06:01:18;;;;;;;8.23;7.50;;;;;;;;;;4944487;29;20525;-76
2023/05/03 06:03:44;;;;;;;8.97;7.93;;;;;;;;;;4938477;29;20790;-74
2023/05/03 06:06:10;;;;;;;9.10;7.27;;;;;;;;;;4940298;29;20450;-75
2023/05/03 06:08:36;;;;;;;7.47;6.73;;;;;;;;;;4946037;29;20449;-74
2023/05/03 06:11:02;;;;;;;20.90;7.77;;;;;;;;;;4937975;28;20443;-74
2023/05/03 06:13:28;;;;;;;8.60;7.87;;;;;;;;;;4948449;28;20525;-74
2023/05/03 06:15:54;;;;;;;9.40;8.50;;;;;;;;;;4944926;29;20485;-74
2023/05/03 06:18:20;;;;;;;8.97;8.17;;;;;;;;;;4945071;29;20402;-77
2023/05/03 06:20:49;;;;;;;7.20;6.60;;;;;;;;;;4943274;28;20759;-75
2023/05/03 06:23:16;;;;;;;9.27;8.23;;;;;;;;;;4925715;29;20411;-75
2023/05/03 06:25:45;;;;;;;9.77;8.80;;;;;;;;;;4940764;29;20439;-76
2023/05/03 06:28:11;;;;;;;9.50;8.70;;;;;;;;;;4942671;28;20462;-76
2023/05/03 06:30:37;;;;;;;8.63;7.90;;;;;;;;;;4945823;29;20510;-76
2023/05/03 06:33:03;;;;;;;8.90;8.10;;;;;;;;;;4937999;28;20502;-75
2023/05/03 06:35:29;;;;;;;8.70;7.80;;;;;;;;;;4943034;29;20981;-75
2023/05/03 06:37:56;;;;;;;8.80;8.10;;;;;;;;;;4944404;29;20469;-76
2023/05/03 06:40:24;;;;;;;7.13;6.47;;;;;;;;;;4941608;29;20465;-75
2023/05/03 06:42:50;;;;;;;7.27;6.77;;;;;;;;;;4946358;29;20486;-75
2023/05/03 06:45:17;;;;;;;8.47;7.67;;;;;;;;;;4943201;29;20434;-77
2023/05/03 06:47:45;;;;;;;9.53;8.17;;;;;;;;;;4925684;29;20443;-77
2023/05/03 06:50:12;;;;;;;8.07;7.27;;;;;;;;;;4937607;29;20431;-74
2023/05/03 06:52:38;;;;;;;50.03;15.73;;;;;;;;;;4924136;29;20443;-76
2023/05/03 06:55:08;;;;;;;16.00;8.47;;;;;;;;;;4937865;29;20431;-77
2023/05/03 06:57:37;;;;;;;8.70;8.00;;;;;;;;;;4945078;29;20657;-76
2023/05/03 07:00:06;;;;;;;28.20;11.20;;;;;;;;;;4926919;29;20424;-75
2023/05/03 07:02:32;;;;;;;8.20;7.67;;;;;;;;;;4942669;29;20447;-76
2023/05/03 07:04:58;;;;;;;9.37;6.97;;;;;;;;;;4938867;29;20786;-77
2023/05/03 07:07:24;;;;;;;7.93;7.17;;;;;;;;;;4941188;29;20522;-75
2023/05/03 07:09:50;;;;;;;7.87;7.37;;;;;;;;;;4942903;29;20430;-74
2023/05/03 07:12:16;;;;;;;7.50;7.00;;;;;;;;;;4937887;29;20530;-74
2023/05/03 07:14:42;;;;;;;8.13;7.40;;;;;;;;;;4942292;29;20541;-75
2023/05/03 07:17:09;;;;;;;8.10;7.27;;;;;;;;;;4941748;29;20977;-76
2023/05/03 07:19:36;;;;;;;7.53;6.97;;;;;;;;;;4936222;29;20420;-75
2023/05/03 07:22:02;;;;;;;9.03;8.07;;;;;;;;;;4941647;29;20542;-75
2023/05/03 07:24:28;;;;;;;7.90;7.03;;;;;;;;;;4934749;29;20392;-75
2023/05/03 07:26:54;;;;;;;7.93;7.20;;;;;;;;;;4934988;29;20446;-76
2023/05/03 07:29:21;;;;;;;8.20;7.40;;;;;;;;;;4941516;28;20473;-74
2023/05/03 07:31:47;;;;;;;7.80;7.30;;;;;;;;;;4939973;29;20947;-75
2023/05/03 07:34:13;;;;;;;8.27;7.57;;;;;;;;;;4946146;29;20433;-76
2023/05/03 07:36:39;;;;;;;7.13;6.43;;;;;;;;;;4939508;29;21093;-76
2023/05/03 07:39:06;;;;;;;7.07;6.57;;;;;;;;;;4942318;29;20434;-75
2023/05/03 07:41:32;;;;;;;7.90;6.47;;;;;;;;;;4942941;29;21017;-75
2023/05/03 07:43:58;;;;;;;7.17;6.57;;;;;;;;;;4934404;28;20924;-74
2023/05/03 07:46:24;;;;;;;6.70;6.33;;;;;;;;;;4942509;29;20730;-75
2023/05/03 07:48:50;;;;;;;6.63;6.23;;;;;;;;;;4937367;29;20450;-75
2023/05/03 07:51:16;;;;;;;7.20;6.80;;;;;;;;;;4939766;29;20813;-77
2023/05/03 07:53:43;;;;;;;7.77;7.17;;;;;;;;;;4945324;29;20480;-76
2023/05/03 07:56:09;;;;;;;6.40;5.90;;;;;;;;;;4933738;29;20965;-75
2023/05/03 07:58:35;;;;;;;6.33;5.73;;;;;;;;;;4942182;29;20446;-76
2023/05/03 08:01:02;;;;;;;7.43;6.90;;;;;;;;;;4941749;29;20445;-77
2023/05/03 08:03:28;;;;;;;8.80;5.60;;;20.20;81.40;;;;;;4933355;29;20964;-75
2023/05/03 08:05:54;;;;;;;6.83;6.33;;;;;;;;;;4933632;29;20458;-75
2023/05/03 08:08:20;;;;;;;5.63;5.33;;;;;;;;;;4942666;29;20208;-73
2023/05/03 08:10:46;;;;;;;6.20;5.80;;;;;;;;;;4936467;28;20533;-76
2023/05/03 08:13:12;;;;;;;6.23;5.60;;;;;;;;;;4944761;29;20668;-75
2023/05/03 08:15:38;;;;;;;5.43;5.13;;;19.90;74.20;;;;;;4938501;29;20496;-76
2023/05/03 08:18:04;;;;;;;4.67;4.33;;;19.00;81.60;;;;;;4940593;29;20521;-75
2023/05/03 08:20:30;;;;;;;4.53;4.20;;;19.30;80.70;;;;;;4943510;29;20426;-76
2023/05/03 08:22:56;;;;;;;4.60;4.40;;;;;;;;;;4935898;29;20198;-77
2023/05/03 08:25:23;;;;;;;4.43;4.10;;;19.60;73.00;;;;;;4939923;29;20615;-75
2023/05/03 08:27:49;;;;;;;4.13;4.00;;;20.40;79.20;;;;;;4935715;29;20888;-77
2023/05/03 08:30:15;;;;;;;8.47;5.50;;;20.50;76.70;;;;;;4937453;29;20490;-78
2023/05/03 08:32:41;;;;;;;5.03;4.80;;;;;;;;;;4947114;29;20595;-79
2023/05/03 08:35:07;;;;;;;5.63;5.43;;;;;;;;;;4939249;29;20448;-76
2023/05/03 08:37:40;;;;;;;5.10;4.60;;;;;;;;;;4941088;29;20988;-78
2023/05/03 08:40:07;;;;;;;5.37;5.03;;;;;;;;;;4945568;29;20660;-76
2023/05/03 08:42:33;;;;;;;7.77;7.47;;;;;;;;;;4943614;29;21109;-78
2023/05/03 08:44:59;;;;;;;5.10;4.90;;;;;;;;;;4943696;29;20399;-76
2023/05/03 08:47:26;;;;;;;7.30;6.83;;;;;;;;;;4938557;29;20458;-77
2023/05/03 08:49:52;;;;;;;6.33;5.67;;;;;;;;;;4937337;29;20410;-76
2023/05/03 08:52:20;;;;;;;5.13;4.73;;;;;;;;;;4940078;29;20447;-76
2023/05/03 08:54:48;;;;;;;4.77;4.67;;;;;;;;;;4941365;29;20493;-77
2023/05/03 08:57:14;;;;;;;4.33;4.13;;;;;;;;;;4938351;29;20482;-77
2023/05/03 08:59:52;;;;;;;5.57;5.13;;;;;;;;;;4933189;29;20714;-75
2023/05/03 09:02:18;;;;;;;7.13;6.70;;;;;;;;;;4936756;28;20962;-76
2023/05/03 09:04:44;;;;;;;5.07;4.63;;;;;;;;;;4942536;29;20980;-80
2023/05/03 09:07:11;;;;;;;6.90;6.40;;;;;;;;;;4918467;29;20447;-77
2023/05/03 09:09:37;;;;;;;6.63;6.13;;;;;;;;;;4942176;29;20447;-74
2023/05/03 09:12:04;;;;;;;5.93;5.63;;;;;;;;;;4941086;29;20438;-76
2023/05/03 09:14:30;;;;;;;7.27;6.70;;;;;;;;;;4939069;29;20459;-76
2023/05/03 09:17:12;;;;;;;7.40;6.93;;;;;;;;;;4941184;29;20510;-76
2023/05/03 09:19:55;;;;;;;6.77;6.40;;;;;;;;;;4945682;29;20807;-75
2023/05/03 09:22:26;;;;;;;8.17;7.63;;;;;;;;;;4940239;29;20438;-76
2023/05/03 09:24:57;;;;;;;6.87;6.43;;;;;;;;;;4942926;29;20945;-76
2023/05/03 09:27:23;;;;;;;7.93;7.30;;;;;;;;;;4938901;29;20949;-75
2023/05/03 09:29:49;;;;;;;14.23;13.20;;;;;;;;;;4918398;29;20469;-76
2023/05/03 09:32:16;;;;;;;6.47;6.10;;;;;;;;;;4935543;29;21034;-77
2023/05/03 09:34:42;;;;;;;7.70;7.07;;;;;;;;;;4940932;29;20442;-76
2023/05/03 09:37:14;;;;;;;6.40;6.10;;;;;;;;;;4931885;28;20490;-76
2023/05/03 09:39:45;;;;;;;5.80;5.60;;;;;;;;;;4940515;29;20430;-76
2023/05/03 09:42:15;;;;;;;6.40;6.10;;;;;;;;;;4939195;29;20442;-75
2023/05/03 09:44:47;;;;;;;6.40;6.10;;;;;;;;;;4931778;29;20466;-76
2023/05/03 09:47:13;;;;;;;6.40;6.00;;;;;;;;;;4933464;29;20438;-77
2023/05/03 09:49:40;;;;;;;5.83;5.40;;;;;;;;;;4937900;29;20470;-75
2023/05/03 09:52:06;;;;;;;6.27;5.93;;;;;;;;;;4943080;29;20530;-75
2023/05/03 09:54:35;;;;;;;5.33;5.03;;;;;;;;;;4944197;29;20462;-76
2023/05/03 09:57:03;;;;;;;17.13;16.03;;;;;;;;;;4929654;29;20842;-75
2023/05/03 09:59:29;;;;;;;4.43;4.33;;;;;;;;;;4943700;29;20445;-76
2023/05/03 10:02:00;;;;;;;7.20;6.73;;;;;;;;;;4937640;29;20470;-75
2023/05/03 10:04:27;;;;;;;5.47;5.27;;;;;;;;;;4932860;29;20430;-75
2023/05/03 10:06:53;;;;;;;4.70;4.53;;;;;;;;;;4939310;28;20441;-75
2023/05/03 10:09:38;;;;;;;5.10;5.00;;;;;;;;;;4930564;29;20480;-74
2023/05/03 10:12:06;;;;;;;6.00;5.67;;;;;;;;;;4944815;28;20953;-75
2023/05/03 10:14:32;;;;;;;4.70;4.53;;;;;;;;;;4949000;29;20971;-75
2023/05/03 10:17:00;;;;;;;5.73;5.43;;;;;;;;;;4945990;29;20801;-76
2023/05/03 10:19:34;;;;;;;4.60;4.40;;;;;;;;;;4949452;29;21113;-75
2023/05/03 10:22:07;;;;;;;4.43;4.10;;;;;;;;;;4939680;29;20450;-74
2023/05/03 10:24:33;;;;;;;5.80;4.47;;;;;;;;;;4939266;29;20474;-74
2023/05/03 10:26:59;;;;;;;4.87;4.37;;;;;;;;;;4943543;29;20434;-76
2023/05/03 10:29:34;;;;;;;5.63;5.33;;;;;;;;;;4941816;28;20957;-76
2023/05/03 10:32:04;;;;;;;4.80;4.50;;;;;;;;;;4944567;29;20516;-76
2023/05/03 10:34:31;;;;;;;5.33;5.13;;;;;;;;;;4942995;29;20438;-76
2023/05/03 10:37:01;;;;;;;5.00;4.60;;;;;;;;;;4944241;29;21491;-75
2023/05/03 10:39:27;;;;;;;4.10;4.00;;;;;;;;;;4944312;29;20451;-74
2023/05/03 10:42:02;;;;;;;4.97;4.77;;;;;;;;;;4944866;29;20481;-76
2023/05/03 10:44:41;;;;;;;4.80;4.60;;;;;;;;;;4933640;29;20418;-75
2023/05/03 10:47:13;;;;;;;5.03;4.80;;;;;;;;;;4941261;29;20497;-76
2023/05/03 10:49:39;;;;;;;4.10;3.90;;;;;;;;;;4948322;29;20425;-74
2023/05/03 10:52:24;;;;;;;5.83;5.40;;;;;;;;;;4927506;29;20902;-77
2023/05/03 10:54:51;;;;;;;5.57;5.37;;;;;;;;;;4944456;29;20435;-75
2023/05/03 10:57:17;;;;;;;5.33;5.07;;;;;;;;;;4941499;29;20581;-76
2023/05/03 10:59:47;;;;;;;5.77;5.37;;;;;;;;;;4945826;29;20930;-75
2023/05/03 11:02:16;;;;;;;5.70;5.30;;;;;;;;;;4933504;28;20481;-75
2023/05/03 11:04:44;;;;;;;4.93;4.80;;;;;;;;;;4943303;29;20426;-74
2023/05/03 11:07:10;;;;;;;5.37;5.07;;;;;;;;;;4940701;29;20933;-76
2023/05/03 11:09:37;;;;;;;5.27;4.97;;;;;;;;;;4945580;29;20442;-74
2023/05/03 11:12:04;;;;;;;5.00;4.87;;;;;;;;;;4934901;29;20715;-76
2023/05/03 11:14:30;;;;;;;4.87;4.47;;;;;;;;;;4948200;29;20517;-75
2023/05/03 11:16:56;;;;;;;5.17;4.67;;;;;;;;;;4941466;29;20501;-77
2023/05/03 11:19:23;;;;;;;4.67;4.47;;;;;;;;;;4944788;28;20430;-74
2023/05/03 11:21:50;;;;;;;5.93;5.53;;;;;;;;;;4945529;29;20800;-74
2023/05/03 11:24:16;;;;;;;5.93;5.40;;;26.50;56.60;;;;;;4947880;29;20489;-75
2023/05/03 11:26:42;;;;;;;4.67;4.47;;;;;;;;;;4944933;29;20449;-77
2023/05/03 11:29:12;;;;;;;5.30;5.00;;;;;;;;;;4948294;29;20202;-76
2023/05/03 11:31:41;;;;;;;5.67;5.33;;;;;;;;;;4945038;29;20778;-75
2023/05/03 11:34:07;;;;;;;4.50;4.33;;;;;;;;;;4948130;29;20426;-75
2023/05/03 11:36:34;;;;;;;6.87;6.37;;;;;;;;;;4944281;29;20481;-74
2023/05/03 11:39:00;;;;;;;5.60;5.20;;;;;;;;;;4939888;29;20453;-75
2023/05/03 11:41:26;;;;;;;4.13;3.97;;;;;;;;;;4942637;28;20478;-76
2023/05/03 11:43:52;;;;;;;4.37;4.27;;;;;;;;;;4934229;29;20946;-75
2023/05/03 11:46:25;;;;;;;5.03;4.67;;;;;;;;;;4938005;29;20446;-78
2023/05/03 11:48:51;;;;;;;4.53;4.30;;;;;;;;;;4942946;29;20474;-77
2023/05/03 11:51:26;;;;;;;4.80;4.50;;;;;;;;;;4946646;28;20949;-76
2023/05/03 11:53:52;;;;;;;5.33;5.13;;;;;;;;;;4941899;28;20548;-76
2023/05/03 11:56:19;;;;;;;5.00;4.43;;;;;;;;;;4946089;29;20469;-79
2023/05/03 11:58:50;;;;;;;5.00;4.70;;;;;;;;;;4940384;29;20422;-76
2023/05/03 12:01:16;;;;;;;4.90;4.70;;;;;;;;;;4940663;29;20430;-78
2023/05/03 12:03:42;;;;;;;4.67;4.57;;;;;;;;;;4939741;29;20923;-78
2023/05/03 12:06:08;;;;;;;5.07;4.90;;;;;;;;;;4925625;29;20716;-75
2023/05/03 12:08:34;;;;;;;5.00;4.60;;;;;;;;;;4947480;29;20462;-77
2023/05/03 12:11:00;;;;;;;4.27;4.17;;;;;;;;;;4943168;29;20478;-75
2023/05/03 12:13:36;;;;;;;5.70;5.30;;;;;;;;;;4934683;29;20446;-77
2023/05/03 12:16:04;;;;;;;3.83;3.83;;;;;;;;;;4933722;29;20470;-77
2023/05/03 12:18:49;;;;;;;4.57;4.40;;;;;;;;;;4938552;29;20442;-77
2023/05/03 12:21:15;;;;;;;4.63;4.23;;;;;;;;;;4948006;29;21099;-78
2023/05/03 12:23:42;;;;;;;5.13;4.70;;;;;;;;;;4937298;29;20821;-78
2023/05/03 12:26:10;;;;;;;4.00;3.90;;;;;;;;;;4948134;29;20441;-76
2023/05/03 12:28:36;;;;;;;5.73;3.77;;;;;;;;;;4943775;28;20509;-77
2023/05/03 12:31:03;;;;;;;4.37;4.07;;;;;;;;;;4946492;28;20481;-77
2023/05/03 12:33:29;;;;;;;4.73;4.57;;;;;;;;;;4925250;28;20959;-76
2023/05/03 12:35:55;;;;;;;4.97;4.50;;;;;;;;;;4945356;28;21016;-75
2023/05/03 12:38:22;;;;;;;4.50;4.17;;;;;;;;;;4943242;29;20500;-76
2023/05/03 12:40:47;;;;;;;5.00;4.63;;;26.70;50.20;;;;;;4951093;28;20472;-77
2023/05/03 12:43:13;;;;;;;4.83;4.50;;;26.00;50.90;;;;;;4943671;28;20779;-76
2023/05/03 12:45:39;;;;;;;4.43;4.23;;;26.30;51.00;;;;;;4933128;28;20270;-75
2023/05/03 12:48:05;;;;;;;4.83;4.63;;;25.50;50.50;;;;;;4941257;29;20445;-76
2023/05/03 12:50:30;;;;;;;4.30;4.10;;;25.50;51.00;;;;;;4935876;28;20621;-78
2023/05/03 12:52:56;;;;;;;4.53;4.30;;;26.10;51.00;;;;;;4942833;28;20579;-75
2023/05/03 12:55:32;;;;;;;3.97;3.87;;;;;;;;;;4929214;28;20199;-78
2023/05/03 12:58:00;;;;;;;5.20;4.90;;;;;;;;;;4932173;29;20895;-77
2023/05/03 13:00:28;;;;;;;5.60;5.10;;;;;;;;;;4936328;28;20407;-76
2023/05/03 13:02:54;;;;;;;4.93;4.72;;;;;;;;;;4943445;28;20402;-75
2023/05/03 13:05:20;;;;;;;5.07;4.87;;;24.90;49.50;;;;;;4936297;28;20187;-76
2023/05/03 13:07:47;;;;;;;5.40;5.10;;;25.70;50.80;;;;;;4940913;28;20434;-75
2023/05/03 13:10:13;;;;;;;4.40;4.30;;;25.20;50.70;;;;;;4935187;29;20194;-75
2023/05/03 13:12:39;;;;;;;5.20;4.97;;;;;;;;;;4932021;29;20847;-75
2023/05/03 13:15:06;;;;;;;4.63;4.25;;;;;;;;;;4934310;29;20932;-75
2023/05/03 13:17:31;;;;;;;4.50;4.20;;;24.50;48.40;;;;;;4935190;28;20300;-75
2023/05/03 13:19:57;;;;;;;5.00;4.60;;;24.70;50.90;;;;;;4941792;29;20522;-75
2023/05/03 13:22:23;;;;;;;7.47;6.90;;;24.40;50.60;;;;;;4938922;28;20669;-77
2023/05/03 13:24:48;;;;;;;5.07;4.97;;;23.90;52.40;;;;;;4933792;29;20268;-78
2023/05/03 13:27:15;;;;;;;6.53;6.10;;;24.60;52.70;;;;;;4936176;28;20632;-77
2023/05/03 13:29:41;;;;;;;5.20;4.73;;;24.30;50.90;;;;;;4939683;28;20606;-76
2023/05/03 13:32:08;;;;;;;5.30;5.00;;;24.20;50.90;;;;;;4940114;28;20452;-77
2023/05/03 13:34:36;;;;;;;5.37;5.00;;;;;;;;;;4950708;28;20190;-76
2023/05/03 13:37:03;;;;;;;4.53;4.22;;;23.60;61.80;;;;;;4937580;29;20415;-78
2023/05/03 13:39:31;;;;;;;4.67;4.47;;;;;;;;;;4940887;28;20196;-74
2023/05/03 13:41:57;;;;;;;5.30;5.00;;;;;;;;;;4930516;28;20895;-78
2023/05/03 13:44:24;;;;;;;4.57;4.17;;;24.30;49.10;;;;;;4946027;29;20207;-76
2023/05/03 13:46:50;;;;;;;5.20;5.00;;;25.10;52.00;;;;;;4950091;29;20929;-78
2023/05/03 13:49:15;;;;;;;5.10;4.60;;;24.80;51.40;;;;;;4945590;29;20472;-76
2023/05/03 13:51:41;;;;;;;6.40;6.00;;;24.30;52.30;;;;;;4949431;29;20460;-77
2023/05/03 13:54:07;;;;;;;5.67;5.33;;;24.00;52.40;;;;;;4941295;29;20289;-76
2023/05/03 13:56:33;;;;;;;4.93;4.73;;;23.70;52.90;;;;;;4944333;28;20239;-76
2023/05/03 13:58:59;;;;;;;5.20;4.90;;;24.30;51.60;;;;;;4941665;29;20664;-77
2023/05/03 14:01:26;;;;;;;5.03;4.77;;;24.60;52.20;;;;;;4945498;29;20434;-75
2023/05/03 14:03:55;;;;;;;6.27;5.87;;;24.80;52.40;;;;;;4945725;29;20824;-76
2023/05/03 14:06:24;;;;;;;5.70;5.20;;;24.10;50.20;;;;;;4949580;29;20529;-76
2023/05/03 14:08:52;;;;;;;6.27;6.07;;;24.40;50.80;;;;;;4946649;29;20430;-76
2023/05/03 14:11:20;;;;;;;6.47;6.07;;;24.50;54.30;;;;;;4948375;29;20819;-76
2023/05/03 14:13:46;;;;;;;6.73;6.17;;;24.20;53.40;;;;;;4928732;29;20979;-75
2023/05/03 14:16:22;;;;;;;4.67;4.43;;;25.30;53.50;;;;;;4951452;29;20462;-75
2023/05/03 14:18:49;;;;;;;5.77;5.40;;;25.00;51.60;;;;;;4921627;29;20183;-74
2023/05/03 14:21:17;;;;;;;5.03;4.63;;;25.10;53.70;;;;;;4939732;29;20422;-76
2023/05/03 14:23:46;;;;;;;5.53;5.03;;;25.10;53.70;;;;;;4935602;29;20447;-74